sensor_id;sensor_type;location;lat;lon;timestamp;pressure;altitude;pressure_sealevel;temperature;humidity
6778;BME280;3426;52.244;10.534;2022-12-11T00:00:46;100324.09;;;1.93;58.49
6778;BME280;3426;52.244;10.534;2022-12-11T00:03:12;100312.72;;;2.30;58.12
6778;BME280;3426;52.244;10.534;2022-12-11T00:05:42;100320.50;;;2.33;58.26
6778;BME280;3426;52.244;10.534;2022-12-11T00:08:09;100324.44;;;2.48;57.93
6778;BME280;3426;52.244;10.534;2022-12-11T00:10:36;100331.88;;;1.17;62.82
6778;BME280;3426;52.244;10.534;2022-12-11T00:13:04;100327.13;;;1.36;63.50
6778;BME280;3426;52.244;10.534;2022-12-11T00:15:30;100326.88;;;1.48;62.94
6778;BME280;3426;52.244;10.534;2022-12-11T00:17:57;100318.75;;;0.78;64.67
6778;BME280;3426;52.244;10.534;2022-12-11T00:20:23;100317.31;;;1.49;62.81
6778;BME280;3426;52.244;10.534;2022-12-11T00:22:50;100310.00;;;1.63;62.03
6778;BME280;3426;52.244;10.534;2022-12-11T00:25:16;100313.16;;;0.98;62.52
6778;BME280;3426;52.244;10.534;2022-12-11T00:27:44;100307.53;;;1.18;63.13
6778;BME280;3426;52.244;10.534;2022-12-11T00:30:11;100313.28;;;0.47;64.15
6778;BME280;3426;52.244;10.534;2022-12-11T00:32:38;100305.84;;;0.74;65.23
6778;BME280;3426;52.244;10.534;2022-12-11T00:35:04;100313.97;;;1.00;64.75
6778;BME280;3426;52.244;10.534;2022-12-11T00:37:31;100307.72;;;1.49;62.43
6778;BME280;3426;52.244;10.534;2022-12-11T00:39:57;100295.69;;;1.79;61.18
6778;BME280;3426;52.244;10.534;2022-12-11T00:42:24;100301.88;;;1.77;61.92
6778;BME280;3426;52.244;10.534;2022-12-11T00:44:50;100297.13;;;1.55;61.73
6778;BME280;3426;52.244;10.534;2022-12-11T00:47:17;100301.97;;;1.72;62.21
6778;BME280;3426;52.244;10.534;2022-12-11T00:49:43;100310.91;;;1.62;61.67
6778;BME280;3426;52.244;10.534;2022-12-11T00:52:15;100301.88;;;0.98;63.39
6778;BME280;3426;52.244;10.534;2022-12-11T00:54:43;100305.47;;;1.32;62.89
6778;BME280;3426;52.244;10.534;2022-12-11T00:57:10;100314.72;;;1.84;61.25
6778;BME280;3426;52.244;10.534;2022-12-11T00:59:36;100311.75;;;1.98;59.70
6778;BME280;3426;52.244;10.534;2022-12-11T01:02:03;100313.88;;;1.84;62.09
6778;BME280;3426;52.244;10.534;2022-12-11T01:04:29;100305.94;;;1.11;63.46
6778;BME280;3426;52.244;10.534;2022-12-11T01:06:56;100318.41;;;0.97;63.41
6778;BME280;3426;52.244;10.534;2022-12-11T01:09:22;100316.53;;;1.44;61.64
6778;BME280;3426;52.244;10.534;2022-12-11T01:12:08;100313.75;;;1.11;63.11
6778;BME280;3426;52.244;10.534;2022-12-11T01:14:34;100314.31;;;2.01;60.54
6778;BME280;3426;52.244;10.534;2022-12-11T01:17:00;100322.91;;;0.89;64.07
6778;BME280;3426;52.244;10.534;2022-12-11T01:19:27;100322.41;;;1.91;61.22
6778;BME280;3426;52.244;10.534;2022-12-11T01:21:53;100321.91;;;1.76;60.94
6778;BME280;3426;52.244;10.534;2022-12-11T01:24:20;100318.38;;;1.77;60.33
6778;BME280;3426;52.244;10.534;2022-12-11T01:26:46;100320.75;;;1.88;59.44
6778;BME280;3426;52.244;10.534;2022-12-11T01:29:13;100325.31;;;1.78;59.01
6778;BME280;3426;52.244;10.534;2022-12-11T01:31:40;100324.03;;;1.19;61.44
6778;BME280;3426;52.244;10.534;2022-12-11T01:34:06;100327.22;;;0.90;62.67
6778;BME280;3426;52.244;10.534;2022-12-11T01:36:33;100320.47;;;0.81;62.68
6778;BME280;3426;52.244;10.534;2022-12-11T01:38:59;100319.06;;;1.47;62.52
6778;BME280;3426;52.244;10.534;2022-12-11T01:41:26;100316.47;;;1.47;60.78
6778;BME280;3426;52.244;10.534;2022-12-11T01:46:33;100315.78;;;1.77;59.81
6778;BME280;3426;52.244;10.534;2022-12-11T01:49:01;100315.63;;;1.83;59.44
6778;BME280;3426;52.244;10.534;2022-12-11T01:51:30;100322.75;;;1.77;58.56
6778;BME280;3426;52.244;10.534;2022-12-11T01:54:01;100324.22;;;1.87;58.41
6778;BME280;3426;52.244;10.534;2022-12-11T01:56:30;100325.13;;;1.47;59.35
6778;BME280;3426;52.244;10.534;2022-12-11T01:59:00;100324.84;;;1.61;60.00
6778;BME280;3426;52.244;10.534;2022-12-11T02:01:44;100314.94;;;2.11;58.33
6778;BME280;3426;52.244;10.534;2022-12-11T02:04:13;100316.56;;;1.02;60.70
6778;BME280;3426;52.244;10.534;2022-12-11T02:06:44;100320.91;;;1.03;61.12
6778;BME280;3426;52.244;10.534;2022-12-11T02:09:14;100324.81;;;1.22;60.65
6778;BME280;3426;52.244;10.534;2022-12-11T02:20:00;100320.19;;;0.51;64.29
6778;BME280;3426;52.244;10.534;2022-12-11T02:25:25;100316.69;;;0.96;62.53
6778;BME280;3426;52.244;10.534;2022-12-11T02:30:51;100320.41;;;-0.13;65.17
6778;BME280;3426;52.244;10.534;2022-12-11T02:33:22;100315.50;;;0.67;64.27
6778;BME280;3426;52.244;10.534;2022-12-11T02:35:51;100324.25;;;0.65;62.79
6778;BME280;3426;52.244;10.534;2022-12-11T02:38:31;100321.13;;;0.47;64.13
6778;BME280;3426;52.244;10.534;2022-12-11T02:40:59;100317.41;;;0.59;63.67
6778;BME280;3426;52.244;10.534;2022-12-11T02:43:28;100320.91;;;0.57;64.89
6778;BME280;3426;52.244;10.534;2022-12-11T02:45:57;100308.13;;;0.89;63.49
6778;BME280;3426;52.244;10.534;2022-12-11T02:48:24;100310.47;;;1.43;61.09
6778;BME280;3426;52.244;10.534;2022-12-11T02:50:55;100310.81;;;1.67;59.71
6778;BME280;3426;52.244;10.534;2022-12-11T02:53:25;100316.34;;;0.21;63.81
6778;BME280;3426;52.244;10.534;2022-12-11T02:56:13;100318.78;;;0.32;64.11
6778;BME280;3426;52.244;10.534;2022-12-11T02:58:45;100303.94;;;0.82;64.08
6778;BME280;3426;52.244;10.534;2022-12-11T03:01:13;100304.72;;;1.27;60.96
6778;BME280;3426;52.244;10.534;2022-12-11T03:03:40;100303.41;;;1.48;60.07
6778;BME280;3426;52.244;10.534;2022-12-11T03:06:09;100299.94;;;1.48;60.14
6778;BME280;3426;52.244;10.534;2022-12-11T03:08:37;100300.06;;;1.79;59.26
6778;BME280;3426;52.244;10.534;2022-12-11T03:11:03;100304.13;;;0.26;63.46
6778;BME280;3426;52.244;10.534;2022-12-11T03:13:29;100299.19;;;1.41;60.29
6778;BME280;3426;52.244;10.534;2022-12-11T03:16:05;100306.22;;;0.05;64.38
6778;BME280;3426;52.244;10.534;2022-12-11T03:18:48;100294.03;;;0.55;64.16
6778;BME280;3426;52.244;10.534;2022-12-11T03:21:23;100298.88;;;0.30;63.36
6778;BME280;3426;52.244;10.534;2022-12-11T03:24:09;100298.69;;;-0.12;65.36
6778;BME280;3426;52.244;10.534;2022-12-11T03:26:51;100292.94;;;1.10;61.54
6778;BME280;3426;52.244;10.534;2022-12-11T03:29:25;100303.56;;;1.00;61.73
6778;BME280;3426;52.244;10.534;2022-12-11T03:31:56;100296.72;;;1.35;60.69
6778;BME280;3426;52.244;10.534;2022-12-11T03:34:29;100296.81;;;0.90;61.36
6778;BME280;3426;52.244;10.534;2022-12-11T03:36:57;100297.94;;;1.19;61.68
6778;BME280;3426;52.244;10.534;2022-12-11T03:39:29;100294.59;;;1.14;61.39
6778;BME280;3426;52.244;10.534;2022-12-11T03:42:00;100291.41;;;0.99;61.23
6778;BME280;3426;52.244;10.534;2022-12-11T03:44:29;100289.88;;;0.46;63.23
6778;BME280;3426;52.244;10.534;2022-12-11T03:46:59;100295.41;;;0.28;63.60
6778;BME280;3426;52.244;10.534;2022-12-11T03:49:28;100301.28;;;-0.12;65.87
6778;BME280;3426;52.244;10.534;2022-12-11T03:51:58;100283.38;;;1.10;62.14
6778;BME280;3426;52.244;10.534;2022-12-11T03:54:26;100283.25;;;0.30;63.56
6778;BME280;3426;52.244;10.534;2022-12-11T03:56:55;100286.72;;;1.15;62.39
6778;BME280;3426;52.244;10.534;2022-12-11T03:59:23;100285.75;;;1.21;60.94
6778;BME280;3426;52.244;10.534;2022-12-11T04:01:49;100295.69;;;1.02;62.72
6778;BME280;3426;52.244;10.534;2022-12-11T04:04:16;100289.53;;;0.64;63.47
6778;BME280;3426;52.244;10.534;2022-12-11T04:06:43;100295.59;;;1.08;62.19
6778;BME280;3426;52.244;10.534;2022-12-11T04:09:09;100295.19;;;1.26;62.18
6778;BME280;3426;52.244;10.534;2022-12-11T04:11:36;100293.09;;;1.42;59.90
6778;BME280;3426;52.244;10.534;2022-12-11T04:14:05;100298.34;;;1.00;60.45
6778;BME280;3426;52.244;10.534;2022-12-11T04:16:51;100295.25;;;1.23;61.02
6778;BME280;3426;52.244;10.534;2022-12-11T04:19:18;100292.72;;;1.59;59.70
6778;BME280;3426;52.244;10.534;2022-12-11T04:22:03;100287.84;;;1.44;59.90
6778;BME280;3426;52.244;10.534;2022-12-11T04:24:49;100288.88;;;1.37;59.85
6778;BME280;3426;52.244;10.534;2022-12-11T04:27:17;100287.88;;;1.02;60.52
6778;BME280;3426;52.244;10.534;2022-12-11T04:30:07;100288.25;;;0.39;63.56
6778;BME280;3426;52.244;10.534;2022-12-11T04:32:34;100287.84;;;1.03;61.19
6778;BME280;3426;52.244;10.534;2022-12-11T04:35:00;100285.31;;;0.57;62.76
6778;BME280;3426;52.244;10.534;2022-12-11T04:37:27;100289.88;;;0.46;62.78
6778;BME280;3426;52.244;10.534;2022-12-11T04:39:54;100287.69;;;1.11;61.72
6778;BME280;3426;52.244;10.534;2022-12-11T04:42:20;100284.09;;;0.75;60.82
6778;BME280;3426;52.244;10.534;2022-12-11T04:44:47;100280.19;;;0.96;60.79
6778;BME280;3426;52.244;10.534;2022-12-11T04:47:13;100270.75;;;1.30;59.79
6778;BME280;3426;52.244;10.534;2022-12-11T04:49:40;100278.19;;;1.07;60.77
6778;BME280;3426;52.244;10.534;2022-12-11T04:52:06;100285.94;;;0.70;61.90
6778;BME280;3426;52.244;10.534;2022-12-11T04:54:33;100285.38;;;1.36;60.77
6778;BME280;3426;52.244;10.534;2022-12-11T04:56:59;100291.09;;;1.53;58.92
6778;BME280;3426;52.244;10.534;2022-12-11T04:59:26;100293.44;;;0.42;61.58
6778;BME280;3426;52.244;10.534;2022-12-11T05:01:53;100298.34;;;0.09;63.18
6778;BME280;3426;52.244;10.534;2022-12-11T05:04:19;100282.34;;;0.75;61.59
6778;BME280;3426;52.244;10.534;2022-12-11T05:06:48;100284.75;;;0.85;62.21
6778;BME280;3426;52.244;10.534;2022-12-11T05:09:15;100281.81;;;1.40;59.86
6778;BME280;3426;52.244;10.534;2022-12-11T05:11:42;100281.38;;;1.58;58.60
6778;BME280;3426;52.244;10.534;2022-12-11T05:14:08;100293.81;;;0.20;62.01
6778;BME280;3426;52.244;10.534;2022-12-11T05:16:34;100282.19;;;0.40;63.06
6778;BME280;3426;52.244;10.534;2022-12-11T05:19:01;100286.31;;;0.50;62.04
6778;BME280;3426;52.244;10.534;2022-12-11T05:21:27;100281.72;;;0.16;61.92
6778;BME280;3426;52.244;10.534;2022-12-11T05:24:00;100287.59;;;-0.23;63.89
6778;BME280;3426;52.244;10.534;2022-12-11T05:26:26;100287.53;;;-0.19;63.89
6778;BME280;3426;52.244;10.534;2022-12-11T05:28:53;100270.22;;;0.74;62.56
6778;BME280;3426;52.244;10.534;2022-12-11T05:31:23;100282.41;;;0.26;62.41
6778;BME280;3426;52.244;10.534;2022-12-11T05:33:51;100274.31;;;-0.07;64.62
6778;BME280;3426;52.244;10.534;2022-12-11T05:36:20;100286.19;;;-0.43;65.15
6778;BME280;3426;52.244;10.534;2022-12-11T05:38:48;100267.53;;;0.33;63.88
6778;BME280;3426;52.244;10.534;2022-12-11T05:41:17;100276.53;;;-0.36;64.96
6778;BME280;3426;52.244;10.534;2022-12-11T05:43:44;100274.78;;;0.15;62.95
6778;BME280;3426;52.244;10.534;2022-12-11T05:46:16;100265.78;;;0.79;62.52
6778;BME280;3426;52.244;10.534;2022-12-11T05:48:44;100265.41;;;1.35;60.01
6778;BME280;3426;52.244;10.534;2022-12-11T05:51:12;100258.25;;;1.45;59.04
6778;BME280;3426;52.244;10.534;2022-12-11T05:53:40;100263.75;;;0.92;61.14
6778;BME280;3426;52.244;10.534;2022-12-11T05:56:15;100274.03;;;0.10;62.92
6778;BME280;3426;52.244;10.534;2022-12-11T05:58:43;100275.81;;;0.08;64.44
6778;BME280;3426;52.244;10.534;2022-12-11T06:01:17;100274.28;;;0.43;62.40
6778;BME280;3426;52.244;10.534;2022-12-11T06:03:43;100273.78;;;0.22;64.21
6778;BME280;3426;52.244;10.534;2022-12-11T06:06:10;100266.31;;;0.52;61.16
6778;BME280;3426;52.244;10.534;2022-12-11T06:08:36;100264.09;;;0.75;63.00
6778;BME280;3426;52.244;10.534;2022-12-11T06:11:04;100268.13;;;0.90;63.12
6778;BME280;3426;52.244;10.534;2022-12-11T06:13:31;100273.88;;;0.19;64.79
6778;BME280;3426;52.244;10.534;2022-12-11T06:16:02;100276.34;;;0.25;65.53
6778;BME280;3426;52.244;10.534;2022-12-11T06:18:29;100269.78;;;0.52;64.91
6778;BME280;3426;52.244;10.534;2022-12-11T06:20:56;100264.66;;;0.90;64.16
6778;BME280;3426;52.244;10.534;2022-12-11T06:23:23;100272.53;;;-0.03;66.48
6778;BME280;3426;52.244;10.534;2022-12-11T06:25:49;100281.91;;;-0.45;68.23
6778;BME280;3426;52.244;10.534;2022-12-11T06:28:16;100282.56;;;-0.34;68.78
6778;BME280;3426;52.244;10.534;2022-12-11T06:30:42;100269.97;;;0.42;67.03
6778;BME280;3426;52.244;10.534;2022-12-11T06:33:10;100276.22;;;-0.18;68.48
6778;BME280;3426;52.244;10.534;2022-12-11T06:35:36;100278.34;;;0.11;67.94
6778;BME280;3426;52.244;10.534;2022-12-11T06:38:08;100277.25;;;-0.27;68.30
6778;BME280;3426;52.244;10.534;2022-12-11T06:40:39;100266.03;;;0.66;66.15
6778;BME280;3426;52.244;10.534;2022-12-11T06:43:05;100283.06;;;-0.66;70.07
6778;BME280;3426;52.244;10.534;2022-12-11T06:45:32;100290.53;;;-0.43;70.24
6778;BME280;3426;52.244;10.534;2022-12-11T06:47:58;100284.75;;;0.86;66.38
6778;BME280;3426;52.244;10.534;2022-12-11T06:50:25;100281.19;;;0.45;66.35
6778;BME280;3426;52.244;10.534;2022-12-11T06:52:51;100290.09;;;-0.17;68.70
6778;BME280;3426;52.244;10.534;2022-12-11T06:55:18;100292.50;;;-0.59;70.70
6778;BME280;3426;52.244;10.534;2022-12-11T06:57:44;100295.91;;;-0.56;70.90
6778;BME280;3426;52.244;10.534;2022-12-11T07:00:11;100300.25;;;-0.56;70.83
6778;BME280;3426;52.244;10.534;2022-12-11T07:02:38;100293.06;;;-0.40;70.90
6778;BME280;3426;52.244;10.534;2022-12-11T07:05:04;100299.13;;;-0.40;70.59
6778;BME280;3426;52.244;10.534;2022-12-11T07:07:31;100281.31;;;0.39;67.38
6778;BME280;3426;52.244;10.534;2022-12-11T07:09:58;100281.22;;;0.44;66.70
6778;BME280;3426;52.244;10.534;2022-12-11T07:12:33;100287.91;;;-0.42;69.67
6778;BME280;3426;52.244;10.534;2022-12-11T07:14:59;100305.31;;;-0.45;70.27
6778;BME280;3426;52.244;10.534;2022-12-11T07:17:27;100304.63;;;-0.03;68.64
6778;BME280;3426;52.244;10.534;2022-12-11T07:19:54;100307.50;;;0.32;68.60
6778;BME280;3426;52.244;10.534;2022-12-11T07:22:20;100299.56;;;0.83;66.06
6778;BME280;3426;52.244;10.534;2022-12-11T07:24:47;100300.88;;;0.60;65.33
6778;BME280;3426;52.244;10.534;2022-12-11T07:27:13;100299.75;;;0.73;66.13
6778;BME280;3426;52.244;10.534;2022-12-11T07:29:40;100306.00;;;0.18;67.64
6778;BME280;3426;52.244;10.534;2022-12-11T07:32:07;100309.53;;;-0.40;68.87
6778;BME280;3426;52.244;10.534;2022-12-11T07:34:33;100309.81;;;-0.57;70.22
6778;BME280;3426;52.244;10.534;2022-12-11T07:37:00;100313.63;;;-0.23;69.45
6778;BME280;3426;52.244;10.534;2022-12-11T07:39:27;100316.34;;;0.21;67.05
6778;BME280;3426;52.244;10.534;2022-12-11T07:41:53;100310.91;;;-0.74;71.57
6778;BME280;3426;52.244;10.534;2022-12-11T07:44:20;100316.88;;;0.42;68.11
6778;BME280;3426;52.244;10.534;2022-12-11T07:46:52;100305.84;;;0.72;66.15
6778;BME280;3426;52.244;10.534;2022-12-11T07:49:18;100306.97;;;0.13;67.87
6778;BME280;3426;52.244;10.534;2022-12-11T07:51:45;100297.94;;;0.32;67.46
6778;BME280;3426;52.244;10.534;2022-12-11T07:54:13;100296.63;;;0.56;66.35
6778;BME280;3426;52.244;10.534;2022-12-11T07:56:42;100305.31;;;-0.47;69.53
6778;BME280;3426;52.244;10.534;2022-12-11T07:59:13;100308.91;;;-0.56;70.51
6778;BME280;3426;52.244;10.534;2022-12-11T08:01:42;100312.38;;;-0.55;70.71
6778;BME280;3426;52.244;10.534;2022-12-11T08:04:10;100305.13;;;-0.35;70.17
6778;BME280;3426;52.244;10.534;2022-12-11T08:06:38;100305.66;;;-0.71;69.65
6778;BME280;3426;52.244;10.534;2022-12-11T08:09:07;100303.88;;;-0.66;69.37
6778;BME280;3426;52.244;10.534;2022-12-11T08:11:34;100305.59;;;-0.68;69.74
6778;BME280;3426;52.244;10.534;2022-12-11T08:14:01;100309.22;;;-0.17;68.57
6778;BME280;3426;52.244;10.534;2022-12-11T08:16:28;100298.97;;;-0.29;67.66
6778;BME280;3426;52.244;10.534;2022-12-11T08:18:55;100306.75;;;0.71;65.93
6778;BME280;3426;52.244;10.534;2022-12-11T08:21:23;100305.53;;;0.89;63.68
6778;BME280;3426;52.244;10.534;2022-12-11T08:23:52;100303.94;;;-0.14;67.13
6778;BME280;3426;52.244;10.534;2022-12-11T08:26:24;100302.09;;;0.87;63.69
6778;BME280;3426;52.244;10.534;2022-12-11T08:28:52;100309.00;;;1.30;62.51
6778;BME280;3426;52.244;10.534;2022-12-11T08:31:19;100303.91;;;1.25;62.39
6778;BME280;3426;52.244;10.534;2022-12-11T08:33:48;100298.81;;;1.19;61.42
6778;BME280;3426;52.244;10.534;2022-12-11T08:36:16;100302.53;;;1.48;59.78
6778;BME280;3426;52.244;10.534;2022-12-11T08:38:44;100301.44;;;1.19;61.59
6778;BME280;3426;52.244;10.534;2022-12-11T08:41:20;100297.53;;;0.98;61.94
6778;BME280;3426;52.244;10.534;2022-12-11T08:43:47;100309.97;;;1.26;60.21
6778;BME280;3426;52.244;10.534;2022-12-11T08:46:14;100301.28;;;1.64;60.56
6778;BME280;3426;52.244;10.534;2022-12-11T08:48:41;100306.00;;;1.85;59.96
6778;BME280;3426;52.244;10.534;2022-12-11T08:51:11;100298.16;;;1.85;59.50
6778;BME280;3426;52.244;10.534;2022-12-11T08:53:38;100296.88;;;2.02;59.28
6778;BME280;3426;52.244;10.534;2022-12-11T08:56:10;100290.00;;;1.98;58.54
6778;BME280;3426;52.244;10.534;2022-12-11T08:58:37;100285.59;;;1.66;58.63
6778;BME280;3426;52.244;10.534;2022-12-11T09:01:08;100299.22;;;1.40;59.12
6778;BME280;3426;52.244;10.534;2022-12-11T09:03:36;100289.34;;;1.54;59.28
6778;BME280;3426;52.244;10.534;2022-12-11T09:06:11;100293.47;;;1.63;58.99
6778;BME280;3426;52.244;10.534;2022-12-11T09:08:38;100289.84;;;2.04;58.28
6778;BME280;3426;52.244;10.534;2022-12-11T09:11:07;100286.88;;;2.83;55.75
6778;BME280;3426;52.244;10.534;2022-12-11T09:13:34;100292.78;;;3.49;53.77
6778;BME280;3426;52.244;10.534;2022-12-11T09:16:09;100295.91;;;4.14;51.80
6778;BME280;3426;52.244;10.534;2022-12-11T09:18:37;100291.31;;;4.21;51.06
6778;BME280;3426;52.244;10.534;2022-12-11T09:21:06;100285.03;;;4.98;48.82
6778;BME280;3426;52.244;10.534;2022-12-11T09:23:33;100287.66;;;4.75;49.32
6778;BME280;3426;52.244;10.534;2022-12-11T09:26:03;100283.53;;;4.68;48.93
6778;BME280;3426;52.244;10.534;2022-12-11T09:28:31;100272.19;;;5.14;48.00
6778;BME280;3426;52.244;10.534;2022-12-11T09:30:58;100281.22;;;5.52;47.52
6778;BME280;3426;52.244;10.534;2022-12-11T09:33:25;100283.06;;;5.50;47.00
6778;BME280;3426;52.244;10.534;2022-12-11T09:35:58;100278.94;;;5.43;47.06
6778;BME280;3426;52.244;10.534;2022-12-11T09:38:25;100264.69;;;5.50;46.26
6778;BME280;3426;52.244;10.534;2022-12-11T09:40:52;100268.28;;;6.12;46.16
6778;BME280;3426;52.244;10.534;2022-12-11T09:46:17;100258.69;;;6.11;45.15
6778;BME280;3426;52.244;10.534;2022-12-11T09:48:49;100250.22;;;6.45;44.41
6778;BME280;3426;52.244;10.534;2022-12-11T09:51:35;100252.41;;;5.05;45.84
6778;BME280;3426;52.244;10.534;2022-12-11T09:54:04;100252.44;;;4.57;46.94
6778;BME280;3426;52.244;10.534;2022-12-11T09:59:15;100242.03;;;4.06;48.77
6778;BME280;3426;52.244;10.534;2022-12-11T10:02:02;100241.84;;;3.03;51.20
6778;BME280;3426;52.244;10.534;2022-12-11T10:10:42;100245.19;;;3.08;50.47
6778;BME280;3426;52.244;10.534;2022-12-11T10:13:13;100240.50;;;2.89;51.17
6778;BME280;3426;52.244;10.534;2022-12-11T10:16:11;100245.84;;;3.42;50.65
6778;BME280;3426;52.244;10.534;2022-12-11T10:18:44;100237.09;;;3.15;52.85
6778;BME280;3426;52.244;10.534;2022-12-11T10:21:11;100237.09;;;3.43;51.44
6778;BME280;3426;52.244;10.534;2022-12-11T10:23:45;100245.13;;;3.09;52.07
6778;BME280;3426;52.244;10.534;2022-12-11T10:26:18;100235.34;;;2.86;50.34
6778;BME280;3426;52.244;10.534;2022-12-11T10:28:45;100228.91;;;3.26;50.29
6778;BME280;3426;52.244;10.534;2022-12-11T10:33:54;100221.81;;;3.02;52.33
6778;BME280;3426;52.244;10.534;2022-12-11T10:36:33;100222.00;;;2.35;52.96
6778;BME280;3426;52.244;10.534;2022-12-11T10:39:00;100221.06;;;2.69;52.41
6778;BME280;3426;52.244;10.534;2022-12-11T10:41:41;100226.22;;;3.29;50.93
6778;BME280;3426;52.244;10.534;2022-12-11T10:44:25;100227.19;;;2.97;53.43
6778;BME280;3426;52.244;10.534;2022-12-11T10:47:11;100233.19;;;3.01;51.67
6778;BME280;3426;52.244;10.534;2022-12-11T10:49:52;100226.38;;;3.23;50.96
6778;BME280;3426;52.244;10.534;2022-12-11T10:52:25;100221.47;;;2.53;52.21
6778;BME280;3426;52.244;10.534;2022-12-11T10:57:45;100226.94;;;2.13;52.43
6778;BME280;3426;52.244;10.534;2022-12-11T11:00:36;100220.94;;;2.73;50.64
6778;BME280;3426;52.244;10.534;2022-12-11T11:03:06;100229.25;;;2.86;49.34
6778;BME280;3426;52.244;10.534;2022-12-11T11:05:45;100232.25;;;2.10;50.47
6778;BME280;3426;52.244;10.534;2022-12-11T11:08:18;100225.16;;;2.46;50.47
6778;BME280;3426;52.244;10.534;2022-12-11T11:10:53;100218.47;;;2.03;50.92
6778;BME280;3426;52.244;10.534;2022-12-11T11:13:22;100216.06;;;2.61;50.09
6778;BME280;3426;52.244;10.534;2022-12-11T11:15:58;100211.56;;;2.94;49.15
6778;BME280;3426;52.244;10.534;2022-12-11T11:18:26;100225.41;;;2.38;49.37
6778;BME280;3426;52.244;10.534;2022-12-11T11:20:54;100213.69;;;2.52;48.36
6778;BME280;3426;52.244;10.534;2022-12-11T11:23:21;100213.16;;;2.70;49.31
6778;BME280;3426;52.244;10.534;2022-12-11T11:25:54;100215.28;;;1.94;49.04
6778;BME280;3426;52.244;10.534;2022-12-11T11:28:24;100213.81;;;2.77;48.17
6778;BME280;3426;52.244;10.534;2022-12-11T11:31:01;100207.38;;;2.88;47.84
6778;BME280;3426;52.244;10.534;2022-12-11T11:33:30;100204.94;;;2.82;49.89
6778;BME280;3426;52.244;10.534;2022-12-11T11:36:01;100207.59;;;2.51;48.55
6778;BME280;3426;52.244;10.534;2022-12-11T11:38:32;100204.25;;;2.46;48.78
6778;BME280;3426;52.244;10.534;2022-12-11T11:41:27;100211.94;;;2.82;48.70
6778;BME280;3426;52.244;10.534;2022-12-11T11:43:59;100207.31;;;2.91;47.87
6778;BME280;3426;52.244;10.534;2022-12-11T11:46:37;100203.25;;;3.09;48.78
6778;BME280;3426;52.244;10.534;2022-12-11T11:49:43;100212.34;;;2.68;47.68
6778;BME280;3426;52.244;10.534;2022-12-11T12:00:24;100207.94;;;2.70;49.64
6778;BME280;3426;52.244;10.534;2022-12-11T12:03:00;100195.66;;;2.11;49.92
6778;BME280;3426;52.244;10.534;2022-12-11T12:13:47;100208.09;;;2.93;48.03
6778;BME280;3426;52.244;10.534;2022-12-11T12:22:31;100201.72;;;2.45;50.73
6778;BME280;3426;52.244;10.534;2022-12-11T12:27:32;100191.69;;;1.97;52.74
6778;BME280;3426;52.244;10.534;2022-12-11T12:30:18;100189.81;;;2.02;52.67
6778;BME280;3426;52.244;10.534;2022-12-11T12:33:06;100191.22;;;2.13;52.81
6778;BME280;3426;52.244;10.534;2022-12-11T12:35:43;100182.63;;;2.10;52.71
6778;BME280;3426;52.244;10.534;2022-12-11T12:38:23;100179.06;;;1.46;54.48
6778;BME280;3426;52.244;10.534;2022-12-11T12:41:10;100181.38;;;2.23;53.42
6778;BME280;3426;52.244;10.534;2022-12-11T12:43:44;100177.63;;;2.33;51.72
6778;BME280;3426;52.244;10.534;2022-12-11T12:48:53;100184.03;;;2.53;52.03
6778;BME280;3426;52.244;10.534;2022-12-11T12:51:22;100177.53;;;2.36;52.36
6778;BME280;3426;52.244;10.534;2022-12-11T12:53:54;100181.63;;;2.14;53.31
6778;BME280;3426;52.244;10.534;2022-12-11T12:56:23;100177.81;;;2.26;52.69
6778;BME280;3426;52.244;10.534;2022-12-11T12:58:50;100183.03;;;2.27;52.89
6778;BME280;3426;52.244;10.534;2022-12-11T13:01:19;100183.78;;;2.62;52.04
6778;BME280;3426;52.244;10.534;2022-12-11T13:08:54;100165.19;;;2.71;52.25
6778;BME280;3426;52.244;10.534;2022-12-11T13:11:30;100162.63;;;2.40;52.41
6778;BME280;3426;52.244;10.534;2022-12-11T13:14:04;100156.97;;;2.83;51.85
6778;BME280;3426;52.244;10.534;2022-12-11T13:16:39;100157.94;;;2.20;53.31
6778;BME280;3426;52.244;10.534;2022-12-11T13:19:26;100155.63;;;2.70;52.85
6778;BME280;3426;52.244;10.534;2022-12-11T13:24:26;100159.38;;;2.91;51.90
6778;BME280;3426;52.244;10.534;2022-12-11T13:26:54;100158.31;;;2.97;52.77
6778;BME280;3426;52.244;10.534;2022-12-11T13:32:00;100163.63;;;2.93;51.57
6778;BME280;3426;52.244;10.534;2022-12-11T13:34:31;100167.63;;;2.77;51.83
6778;BME280;3426;52.244;10.534;2022-12-11T13:37:00;100172.50;;;2.89;51.43
6778;BME280;3426;52.244;10.534;2022-12-11T13:39:30;100167.19;;;2.63;52.62
6778;BME280;3426;52.244;10.534;2022-12-11T13:42:19;100166.91;;;2.72;51.94
6778;BME280;3426;52.244;10.534;2022-12-11T13:44:47;100166.88;;;2.74;51.63
6778;BME280;3426;52.244;10.534;2022-12-11T13:47:16;100169.63;;;2.69;53.48
6778;BME280;3426;52.244;10.534;2022-12-11T13:49:47;100166.81;;;2.46;53.91
6778;BME280;3426;52.244;10.534;2022-12-11T13:52:20;100166.38;;;2.89;52.94
6778;BME280;3426;52.244;10.534;2022-12-11T13:54:52;100167.06;;;2.66;54.07
6778;BME280;3426;52.244;10.534;2022-12-11T13:57:21;100168.59;;;2.44;54.76
6778;BME280;3426;52.244;10.534;2022-12-11T13:59:50;100164.66;;;2.89;53.48
6778;BME280;3426;52.244;10.534;2022-12-11T14:04:59;100171.75;;;2.25;54.89
6778;BME280;3426;52.244;10.534;2022-12-11T14:07:29;100173.44;;;2.28;54.10
6778;BME280;3426;52.244;10.534;2022-12-11T14:10:04;100174.19;;;2.31;55.14
6778;BME280;3426;52.244;10.534;2022-12-11T14:12:31;100172.25;;;2.07;54.29
6778;BME280;3426;52.244;10.534;2022-12-11T14:14:59;100172.22;;;2.39;54.23
6778;BME280;3426;52.244;10.534;2022-12-11T14:17:29;100170.66;;;2.63;53.90
6778;BME280;3426;52.244;10.534;2022-12-11T14:19:59;100177.28;;;2.75;53.04
6778;BME280;3426;52.244;10.534;2022-12-11T14:22:27;100178.78;;;1.91;53.97
6778;BME280;3426;52.244;10.534;2022-12-11T14:24:58;100182.03;;;2.31;53.96
6778;BME280;3426;52.244;10.534;2022-12-11T14:27:26;100178.38;;;2.37;53.83
6778;BME280;3426;52.244;10.534;2022-12-11T14:29:53;100181.63;;;2.16;54.58
6778;BME280;3426;52.244;10.534;2022-12-11T14:32:33;100188.47;;;2.49;53.97
6778;BME280;3426;52.244;10.534;2022-12-11T14:35:04;100188.56;;;2.15;55.10
6778;BME280;3426;52.244;10.534;2022-12-11T14:37:33;100194.72;;;2.44;54.48
6778;BME280;3426;52.244;10.534;2022-12-11T14:40:05;100197.03;;;2.56;53.78